sensor_id;sensor_type;location;lat;lon;timestamp;P1;durP1;ratioP1;P2;durP2;ratioP2
25409;SDS011;13339;50.840;4.346;2023-07-30T00:00:48;10.97;;;4.40;;
25409;SDS011;13339;50.840;4.346;2023-07-30T00:03:15;11.17;;;3.87;;
25409;SDS011;13339;50.840;4.346;2023-07-30T00:05:40;13.47;;;4.50;;
25409;SDS011;13339;50.840;4.346;2023-07-30T00:08:06;9.53;;;4.40;;
25409;SDS011;13339;50.840;4.346;2023-07-30T00:10:32;12.47;;;3.83;;
25409;SDS011;13339;50.840;4.346;2023-07-30T00:12:57;13.17;;;4.40;;
25409;SDS011;13339;50.840;4.346;2023-07-30T00:15:23;12.30;;;4.07;;
25409;SDS011;13339;50.840;4.346;2023-07-30T00:17:48;15.17;;;3.90;;
25409;SDS011;13339;50.840;4.346;2023-07-30T00:20:14;15.43;;;4.43;;
25409;SDS011;13339;50.840;4.346;2023-07-30T00:22:39;9.43;;;3.90;;
25409;SDS011;13339;50.840;4.346;2023-07-30T00:25:05;19.10;;;4.77;;
25409;SDS011;13339;50.840;4.346;2023-07-30T00:27:31;15.03;;;3.70;;
25409;SDS011;13339;50.840;4.346;2023-07-30T00:29:56;12.50;;;3.80;;
25409;SDS011;13339;50.840;4.346;2023-07-30T00:32:22;17.00;;;4.23;;
25409;SDS011;13339;50.840;4.346;2023-07-30T00:34:48;13.33;;;3.97;;
25409;SDS011;13339;50.840;4.346;2023-07-30T00:37:13;14.27;;;4.37;;
25409;SDS011;13339;50.840;4.346;2023-07-30T00:39:39;9.93;;;3.87;;
25409;SDS011;13339;50.840;4.346;2023-07-30T00:42:04;17.03;;;4.30;;
25409;SDS011;13339;50.840;4.346;2023-07-30T00:44:30;15.30;;;4.33;;
25409;SDS011;13339;50.840;4.346;2023-07-30T00:46:56;13.40;;;4.53;;
25409;SDS011;13339;50.840;4.346;2023-07-30T00:49:22;15.13;;;4.37;;
25409;SDS011;13339;50.840;4.346;2023-07-30T00:51:47;13.30;;;3.70;;
25409;SDS011;13339;50.840;4.346;2023-07-30T00:54:13;19.17;;;4.00;;
25409;SDS011;13339;50.840;4.346;2023-07-30T00:56:38;12.37;;;4.10;;
25409;SDS011;13339;50.840;4.346;2023-07-30T00:59:10;13.47;;;3.70;;
25409;SDS011;13339;50.840;4.346;2023-07-30T01:01:36;16.13;;;4.13;;
25409;SDS011;13339;50.840;4.346;2023-07-30T01:04:04;13.73;;;4.07;;
25409;SDS011;13339;50.840;4.346;2023-07-30T01:06:30;16.10;;;4.03;;
25409;SDS011;13339;50.840;4.346;2023-07-30T01:08:55;16.00;;;3.80;;
25409;SDS011;13339;50.840;4.346;2023-07-30T01:11:21;12.37;;;4.10;;
25409;SDS011;13339;50.840;4.346;2023-07-30T01:13:46;12.13;;;4.00;;
25409;SDS011;13339;50.840;4.346;2023-07-30T01:16:13;10.20;;;3.60;;
25409;SDS011;13339;50.840;4.346;2023-07-30T01:18:38;14.13;;;4.57;;
25409;SDS011;13339;50.840;4.346;2023-07-30T01:21:04;13.50;;;3.80;;
25409;SDS011;13339;50.840;4.346;2023-07-30T01:23:29;13.20;;;4.03;;
25409;SDS011;13339;50.840;4.346;2023-07-30T01:25:59;15.63;;;3.77;;
25409;SDS011;13339;50.840;4.346;2023-07-30T01:28:43;15.67;;;4.00;;
25409;SDS011;13339;50.840;4.346;2023-07-30T01:31:14;12.57;;;3.60;;
25409;SDS011;13339;50.840;4.346;2023-07-30T01:33:41;10.33;;;3.53;;
25409;SDS011;13339;50.840;4.346;2023-07-30T01:36:08;15.00;;;4.10;;
25409;SDS011;13339;50.840;4.346;2023-07-30T01:38:39;13.67;;;3.90;;
25409;SDS011;13339;50.840;4.346;2023-07-30T01:41:06;14.37;;;3.80;;
25409;SDS011;13339;50.840;4.346;2023-07-30T01:43:32;22.13;;;4.67;;
25409;SDS011;13339;50.840;4.346;2023-07-30T01:45:58;15.13;;;3.87;;
25409;SDS011;13339;50.840;4.346;2023-07-30T01:48:23;11.73;;;3.80;;
25409;SDS011;13339;50.840;4.346;2023-07-30T01:50:49;14.63;;;3.70;;
25409;SDS011;13339;50.840;4.346;2023-07-30T01:53:14;14.97;;;3.90;;
25409;SDS011;13339;50.840;4.346;2023-07-30T01:55:40;14.70;;;3.73;;
25409;SDS011;13339;50.840;4.346;2023-07-30T01:58:11;13.07;;;3.80;;
25409;SDS011;13339;50.840;4.346;2023-07-30T02:00:39;23.43;;;4.03;;
25409;SDS011;13339;50.840;4.346;2023-07-30T02:03:06;14.37;;;3.60;;
25409;SDS011;13339;50.840;4.346;2023-07-30T02:05:32;9.40;;;3.57;;
25409;SDS011;13339;50.840;4.346;2023-07-30T02:07:57;14.17;;;3.03;;
25409;SDS011;13339;50.840;4.346;2023-07-30T02:10:24;14.50;;;3.87;;
25409;SDS011;13339;50.840;4.346;2023-07-30T02:12:50;12.53;;;3.83;;
25409;SDS011;13339;50.840;4.346;2023-07-30T02:15:16;10.80;;;3.47;;
25409;SDS011;13339;50.840;4.346;2023-07-30T02:17:41;14.73;;;3.83;;
25409;SDS011;13339;50.840;4.346;2023-07-30T02:20:07;14.37;;;3.57;;
25409;SDS011;13339;50.840;4.346;2023-07-30T02:22:34;12.73;;;3.57;;
25409;SDS011;13339;50.840;4.346;2023-07-30T02:24:59;15.73;;;3.20;;
25409;SDS011;13339;50.840;4.346;2023-07-30T02:27:25;10.40;;;3.70;;
25409;SDS011;13339;50.840;4.346;2023-07-30T02:29:51;18.17;;;3.83;;
25409;SDS011;13339;50.840;4.346;2023-07-30T02:32:16;15.93;;;2.97;;
25409;SDS011;13339;50.840;4.346;2023-07-30T02:34:42;15.30;;;3.83;;
25409;SDS011;13339;50.840;4.346;2023-07-30T02:37:07;16.17;;;3.57;;
25409;SDS011;13339;50.840;4.346;2023-07-30T02:39:33;11.77;;;3.30;;
25409;SDS011;13339;50.840;4.346;2023-07-30T02:41:58;15.60;;;3.87;;
25409;SDS011;13339;50.840;4.346;2023-07-30T02:44:24;13.30;;;3.20;;
25409;SDS011;13339;50.840;4.346;2023-07-30T02:46:49;13.80;;;4.00;;
25409;SDS011;13339;50.840;4.346;2023-07-30T02:49:15;18.80;;;3.70;;
25409;SDS011;13339;50.840;4.346;2023-07-30T02:51:40;20.77;;;4.00;;
25409;SDS011;13339;50.840;4.346;2023-07-30T02:54:08;18.67;;;3.60;;
25409;SDS011;13339;50.840;4.346;2023-07-30T02:56:34;21.23;;;4.07;;
25409;SDS011;13339;50.840;4.346;2023-07-30T02:59:00;15.80;;;3.70;;
25409;SDS011;13339;50.840;4.346;2023-07-30T03:01:26;17.83;;;3.80;;
25409;SDS011;13339;50.840;4.346;2023-07-30T03:03:52;14.53;;;3.67;;
25409;SDS011;13339;50.840;4.346;2023-07-30T03:06:17;21.63;;;3.97;;
25409;SDS011;13339;50.840;4.346;2023-07-30T03:08:43;20.63;;;3.67;;
25409;SDS011;13339;50.840;4.346;2023-07-30T03:11:09;14.33;;;3.17;;
25409;SDS011;13339;50.840;4.346;2023-07-30T03:13:34;16.27;;;3.40;;
25409;SDS011;13339;50.840;4.346;2023-07-30T03:16:00;17.90;;;3.83;;
25409;SDS011;13339;50.840;4.346;2023-07-30T03:18:25;20.60;;;3.73;;
25409;SDS011;13339;50.840;4.346;2023-07-30T03:20:51;16.43;;;3.40;;
25409;SDS011;13339;50.840;4.346;2023-07-30T03:23:21;14.57;;;3.13;;
25409;SDS011;13339;50.840;4.346;2023-07-30T03:25:47;14.63;;;3.33;;
25409;SDS011;13339;50.840;4.346;2023-07-30T03:28:13;20.33;;;3.33;;
25409;SDS011;13339;50.840;4.346;2023-07-30T03:30:38;18.73;;;3.77;;
25409;SDS011;13339;50.840;4.346;2023-07-30T03:33:04;12.43;;;3.53;;
25409;SDS011;13339;50.840;4.346;2023-07-30T03:35:29;22.80;;;3.53;;
25409;SDS011;13339;50.840;4.346;2023-07-30T03:37:55;16.03;;;3.47;;
25409;SDS011;13339;50.840;4.346;2023-07-30T03:40:20;22.20;;;3.70;;
25409;SDS011;13339;50.840;4.346;2023-07-30T03:42:47;16.10;;;3.43;;
25409;SDS011;13339;50.840;4.346;2023-07-30T03:45:14;14.07;;;3.50;;
25409;SDS011;13339;50.840;4.346;2023-07-30T03:47:39;16.27;;;3.53;;
25409;SDS011;13339;50.840;4.346;2023-07-30T03:50:05;15.17;;;3.40;;
25409;SDS011;13339;50.840;4.346;2023-07-30T03:52:31;13.53;;;2.93;;
25409;SDS011;13339;50.840;4.346;2023-07-30T03:54:56;18.37;;;3.50;;
25409;SDS011;13339;50.840;4.346;2023-07-30T03:57:22;14.00;;;3.03;;
25409;SDS011;13339;50.840;4.346;2023-07-30T03:59:48;13.97;;;3.40;;
25409;SDS011;13339;50.840;4.346;2023-07-30T04:02:13;18.53;;;3.97;;
25409;SDS011;13339;50.840;4.346;2023-07-30T04:04:41;18.57;;;3.33;;
25409;SDS011;13339;50.840;4.346;2023-07-30T04:07:09;15.20;;;3.70;;
25409;SDS011;13339;50.840;4.346;2023-07-30T04:09:35;21.00;;;3.50;;
25409;SDS011;13339;50.840;4.346;2023-07-30T04:12:01;23.93;;;4.00;;
25409;SDS011;13339;50.840;4.346;2023-07-30T04:14:27;16.93;;;3.27;;
25409;SDS011;13339;50.840;4.346;2023-07-30T04:16:52;16.33;;;3.50;;
25409;SDS011;13339;50.840;4.346;2023-07-30T04:19:18;17.27;;;3.43;;
25409;SDS011;13339;50.840;4.346;2023-07-30T04:21:44;18.77;;;3.70;;
25409;SDS011;13339;50.840;4.346;2023-07-30T04:24:09;17.23;;;3.83;;
25409;SDS011;13339;50.840;4.346;2023-07-30T04:26:35;15.63;;;3.33;;
25409;SDS011;13339;50.840;4.346;2023-07-30T04:29:01;24.50;;;4.07;;
25409;SDS011;13339;50.840;4.346;2023-07-30T04:31:26;22.97;;;3.83;;
25409;SDS011;13339;50.840;4.346;2023-07-30T04:33:52;18.67;;;3.83;;
25409;SDS011;13339;50.840;4.346;2023-07-30T04:36:17;19.33;;;3.67;;
25409;SDS011;13339;50.840;4.346;2023-07-30T04:38:43;17.50;;;4.23;;
25409;SDS011;13339;50.840;4.346;2023-07-30T04:41:08;19.00;;;3.27;;
25409;SDS011;13339;50.840;4.346;2023-07-30T04:43:34;17.27;;;3.67;;
25409;SDS011;13339;50.840;4.346;2023-07-30T04:46:00;22.73;;;4.07;;
25409;SDS011;13339;50.840;4.346;2023-07-30T04:48:25;22.27;;;3.57;;
25409;SDS011;13339;50.840;4.346;2023-07-30T04:50:51;20.50;;;3.90;;
25409;SDS011;13339;50.840;4.346;2023-07-30T04:53:17;17.70;;;3.00;;
25409;SDS011;13339;50.840;4.346;2023-07-30T04:55:43;18.10;;;3.43;;
25409;SDS011;13339;50.840;4.346;2023-07-30T04:58:09;21.50;;;3.87;;
25409;SDS011;13339;50.840;4.346;2023-07-30T05:00:34;18.50;;;3.40;;
25409;SDS011;13339;50.840;4.346;2023-07-30T05:03:00;12.47;;;3.43;;
25409;SDS011;13339;50.840;4.346;2023-07-30T05:05:25;17.70;;;3.40;;
25409;SDS011;13339;50.840;4.346;2023-07-30T05:07:51;20.17;;;3.97;;
25409;SDS011;13339;50.840;4.346;2023-07-30T05:10:17;28.00;;;4.50;;
25409;SDS011;13339;50.840;4.346;2023-07-30T05:12:42;20.87;;;3.47;;
25409;SDS011;13339;50.840;4.346;2023-07-30T05:15:08;20.33;;;4.20;;
25409;SDS011;13339;50.840;4.346;2023-07-30T05:17:34;20.30;;;4.20;;
25409;SDS011;13339;50.840;4.346;2023-07-30T05:19:59;18.57;;;3.73;;
25409;SDS011;13339;50.840;4.346;2023-07-30T05:22:25;27.83;;;4.33;;
25409;SDS011;13339;50.840;4.346;2023-07-30T05:24:50;16.57;;;3.97;;
25409;SDS011;13339;50.840;4.346;2023-07-30T05:27:16;22.50;;;4.20;;
25409;SDS011;13339;50.840;4.346;2023-07-30T05:29:42;19.87;;;4.07;;
25409;SDS011;13339;50.840;4.346;2023-07-30T05:32:08;15.67;;;3.77;;
25409;SDS011;13339;50.840;4.346;2023-07-30T05:34:34;17.50;;;4.20;;
25409;SDS011;13339;50.840;4.346;2023-07-30T05:36:59;12.70;;;3.37;;
25409;SDS011;13339;50.840;4.346;2023-07-30T05:39:25;23.40;;;4.70;;
25409;SDS011;13339;50.840;4.346;2023-07-30T05:41:51;26.80;;;4.73;;
25409;SDS011;13339;50.840;4.346;2023-07-30T05:44:16;19.70;;;3.83;;
25409;SDS011;13339;50.840;4.346;2023-07-30T05:46:42;13.67;;;3.47;;
25409;SDS011;13339;50.840;4.346;2023-07-30T05:49:08;22.63;;;3.87;;
25409;SDS011;13339;50.840;4.346;2023-07-30T05:51:33;18.27;;;3.43;;
25409;SDS011;13339;50.840;4.346;2023-07-30T05:53:59;19.97;;;4.00;;
25409;SDS011;13339;50.840;4.346;2023-07-30T05:56:25;18.93;;;4.13;;
25409;SDS011;13339;50.840;4.346;2023-07-30T05:58:50;19.17;;;3.53;;
25409;SDS011;13339;50.840;4.346;2023-07-30T06:01:16;17.43;;;3.57;;
25409;SDS011;13339;50.840;4.346;2023-07-30T06:03:42;13.37;;;3.73;;
25409;SDS011;13339;50.840;4.346;2023-07-30T06:06:07;20.67;;;4.17;;
25409;SDS011;13339;50.840;4.346;2023-07-30T06:08:33;23.17;;;4.43;;
25409;SDS011;13339;50.840;4.346;2023-07-30T06:11:02;22.20;;;3.70;;
25409;SDS011;13339;50.840;4.346;2023-07-30T06:13:28;14.77;;;3.77;;
25409;SDS011;13339;50.840;4.346;2023-07-30T06:15:54;16.67;;;3.50;;
25409;SDS011;13339;50.840;4.346;2023-07-30T06:18:20;22.20;;;4.13;;
25409;SDS011;13339;50.840;4.346;2023-07-30T06:20:46;17.53;;;3.93;;
25409;SDS011;13339;50.840;4.346;2023-07-30T06:23:11;16.70;;;3.73;;
25409;SDS011;13339;50.840;4.346;2023-07-30T06:25:37;19.70;;;3.87;;
25409;SDS011;13339;50.840;4.346;2023-07-30T06:28:04;18.00;;;4.10;;
25409;SDS011;13339;50.840;4.346;2023-07-30T06:30:31;16.20;;;3.83;;
25409;SDS011;13339;50.840;4.346;2023-07-30T06:32:57;20.33;;;4.10;;
25409;SDS011;13339;50.840;4.346;2023-07-30T06:35:22;28.67;;;5.57;;
25409;SDS011;13339;50.840;4.346;2023-07-30T06:37:48;21.70;;;4.20;;
25409;SDS011;13339;50.840;4.346;2023-07-30T06:40:15;21.53;;;4.50;;
25409;SDS011;13339;50.840;4.346;2023-07-30T06:42:41;26.63;;;3.53;;
25409;SDS011;13339;50.840;4.346;2023-07-30T06:45:07;21.60;;;4.33;;
25409;SDS011;13339;50.840;4.346;2023-07-30T06:47:33;20.20;;;4.23;;
25409;SDS011;13339;50.840;4.346;2023-07-30T06:49:58;27.53;;;4.30;;
25409;SDS011;13339;50.840;4.346;2023-07-30T06:52:24;16.60;;;3.67;;
25409;SDS011;13339;50.840;4.346;2023-07-30T06:54:49;19.90;;;4.43;;
25409;SDS011;13339;50.840;4.346;2023-07-30T06:57:15;26.63;;;4.33;;
25409;SDS011;13339;50.840;4.346;2023-07-30T06:59:41;16.47;;;3.80;;
25409;SDS011;13339;50.840;4.346;2023-07-30T07:02:06;19.20;;;3.83;;
25409;SDS011;13339;50.840;4.346;2023-07-30T07:04:32;16.13;;;4.03;;
25409;SDS011;13339;50.840;4.346;2023-07-30T07:06:58;26.17;;;4.73;;
25409;SDS011;13339;50.840;4.346;2023-07-30T07:09:23;17.13;;;3.80;;
25409;SDS011;13339;50.840;4.346;2023-07-30T07:11:49;20.40;;;3.87;;
25409;SDS011;13339;50.840;4.346;2023-07-30T07:14:14;20.10;;;4.03;;
25409;SDS011;13339;50.840;4.346;2023-07-30T07:16:40;17.23;;;4.07;;
25409;SDS011;13339;50.840;4.346;2023-07-30T07:19:05;18.37;;;3.70;;
25409;SDS011;13339;50.840;4.346;2023-07-30T07:21:31;17.10;;;3.93;;
25409;SDS011;13339;50.840;4.346;2023-07-30T07:23:57;15.03;;;3.60;;
25409;SDS011;13339;50.840;4.346;2023-07-30T07:26:22;17.07;;;3.60;;
25409;SDS011;13339;50.840;4.346;2023-07-30T07:28:48;18.60;;;4.37;;
25409;SDS011;13339;50.840;4.346;2023-07-30T07:31:13;21.83;;;3.90;;
25409;SDS011;13339;50.840;4.346;2023-07-30T07:33:39;17.13;;;3.47;;
25409;SDS011;13339;50.840;4.346;2023-07-30T07:36:06;17.33;;;3.77;;
25409;SDS011;13339;50.840;4.346;2023-07-30T07:38:32;16.73;;;3.43;;
25409;SDS011;13339;50.840;4.346;2023-07-30T07:40:59;16.67;;;3.63;;
25409;SDS011;13339;50.840;4.346;2023-07-30T07:43:25;17.53;;;3.43;;
25409;SDS011;13339;50.840;4.346;2023-07-30T07:45:51;18.53;;;3.50;;
25409;SDS011;13339;50.840;4.346;2023-07-30T07:48:17;17.57;;;3.43;;
25409;SDS011;13339;50.840;4.346;2023-07-30T07:50:42;16.77;;;4.30;;
25409;SDS011;13339;50.840;4.346;2023-07-30T07:53:08;17.73;;;3.73;;
25409;SDS011;13339;50.840;4.346;2023-07-30T07:55:33;18.00;;;4.00;;
25409;SDS011;13339;50.840;4.346;2023-07-30T07:57:59;19.80;;;4.00;;
25409;SDS011;13339;50.840;4.346;2023-07-30T08:00:24;13.87;;;3.40;;
25409;SDS011;13339;50.840;4.346;2023-07-30T08:02:50;13.93;;;4.80;;
25409;SDS011;13339;50.840;4.346;2023-07-30T08:05:16;17.03;;;3.77;;
25409;SDS011;13339;50.840;4.346;2023-07-30T08:07:43;20.73;;;3.47;;
25409;SDS011;13339;50.840;4.346;2023-07-30T08:10:10;13.77;;;3.10;;
25409;SDS011;13339;50.840;4.346;2023-07-30T08:12:36;13.60;;;2.80;;
25409;SDS011;13339;50.840;4.346;2023-07-30T08:15:02;19.50;;;3.97;;
25409;SDS011;13339;50.840;4.346;2023-07-30T08:17:28;13.67;;;3.53;;
25409;SDS011;13339;50.840;4.346;2023-07-30T08:19:54;11.93;;;3.47;;
25409;SDS011;13339;50.840;4.346;2023-07-30T08:22:19;16.00;;;3.43;;
25409;SDS011;13339;50.840;4.346;2023-07-30T08:24:45;15.17;;;3.20;;
25409;SDS011;13339;50.840;4.346;2023-07-30T08:27:10;13.67;;;3.57;;
25409;SDS011;13339;50.840;4.346;2023-07-30T08:29:36;21.03;;;3.70;;
25409;SDS011;13339;50.840;4.346;2023-07-30T08:32:02;12.37;;;3.33;;
25409;SDS011;13339;50.840;4.346;2023-07-30T08:34:27;16.90;;;3.47;;
25409;SDS011;13339;50.840;4.346;2023-07-30T08:36:53;18.43;;;3.13;;
25409;SDS011;13339;50.840;4.346;2023-07-30T08:39:19;17.30;;;3.23;;
25409;SDS011;13339;50.840;4.346;2023-07-30T08:41:45;13.80;;;2.77;;
25409;SDS011;13339;50.840;4.346;2023-07-30T08:44:12;12.77;;;3.07;;
25409;SDS011;13339;50.840;4.346;2023-07-30T08:46:38;20.63;;;4.37;;
25409;SDS011;13339;50.840;4.346;2023-07-30T08:49:04;11.13;;;3.30;;
25409;SDS011;13339;50.840;4.346;2023-07-30T08:51:30;10.23;;;3.50;;
25409;SDS011;13339;50.840;4.346;2023-07-30T08:53:59;7.20;;;2.70;;
25409;SDS011;13339;50.840;4.346;2023-07-30T08:56:26;13.63;;;3.10;;
25409;SDS011;13339;50.840;4.346;2023-07-30T08:58:52;14.93;;;3.70;;
25409;SDS011;13339;50.840;4.346;2023-07-30T09:01:22;10.37;;;2.83;;
25409;SDS011;13339;50.840;4.346;2023-07-30T09:03:51;12.90;;;3.17;;
25409;SDS011;13339;50.840;4.346;2023-07-30T09:06:18;14.43;;;2.80;;
25409;SDS011;13339;50.840;4.346;2023-07-30T09:08:43;11.83;;;2.80;;
25409;SDS011;13339;50.840;4.346;2023-07-30T09:11:09;12.33;;;2.73;;
25409;SDS011;13339;50.840;4.346;2023-07-30T09:13:39;10.20;;;2.90;;
25409;SDS011;13339;50.840;4.346;2023-07-30T09:16:12;17.33;;;3.13;;
25409;SDS011;13339;50.840;4.346;2023-07-30T09:18:43;10.80;;;2.80;;
25409;SDS011;13339;50.840;4.346;2023-07-30T09:21:10;12.20;;;2.83;;
25409;SDS011;13339;50.840;4.346;2023-07-30T09:23:40;12.53;;;2.53;;
25409;SDS011;13339;50.840;4.346;2023-07-30T09:26:07;13.30;;;2.77;;
25409;SDS011;13339;50.840;4.346;2023-07-30T09:28:33;12.23;;;3.00;;
25409;SDS011;13339;50.840;4.346;2023-07-30T09:31:02;11.23;;;2.57;;
25409;SDS011;13339;50.840;4.346;2023-07-30T09:33:32;15.00;;;2.53;;
25409;SDS011;13339;50.840;4.346;2023-07-30T09:35:58;13.50;;;2.93;;
25409;SDS011;13339;50.840;4.346;2023-07-30T09:38:27;11.30;;;3.13;;
25409;SDS011;13339;50.840;4.346;2023-07-30T09:40:59;14.73;;;3.50;;
25409;SDS011;13339;50.840;4.346;2023-07-30T09:43:29;11.80;;;2.70;;
25409;SDS011;13339;50.840;4.346;2023-07-30T09:46:00;12.40;;;2.67;;
25409;SDS011;13339;50.840;4.346;2023-07-30T09:48:28;12.57;;;3.03;;
25409;SDS011;13339;50.840;4.346;2023-07-30T09:51:01;17.30;;;3.33;;
25409;SDS011;13339;50.840;4.346;2023-07-30T09:53:31;16.17;;;3.30;;
25409;SDS011;13339;50.840;4.346;2023-07-30T09:56:02;13.77;;;3.03;;
25409;SDS011;13339;50.840;4.346;2023-07-30T09:58:29;15.77;;;2.83;;
25409;SDS011;13339;50.840;4.346;2023-07-30T10:00:56;9.63;;;2.97;;
25409;SDS011;13339;50.840;4.346;2023-07-30T10:03:24;7.13;;;2.50;;
25409;SDS011;13339;50.840;4.346;2023-07-30T10:05:51;10.23;;;3.10;;
25409;SDS011;13339;50.840;4.346;2023-07-30T10:08:21;9.77;;;3.03;;
25409;SDS011;13339;50.840;4.346;2023-07-30T10:10:49;15.00;;;2.90;;
25409;SDS011;13339;50.840;4.346;2023-07-30T10:13:16;12.80;;;3.03;;
25409;SDS011;13339;50.840;4.346;2023-07-30T10:15:43;14.20;;;2.93;;
25409;SDS011;13339;50.840;4.346;2023-07-30T10:18:10;11.17;;;2.97;;
25409;SDS011;13339;50.840;4.346;2023-07-30T10:20:36;11.17;;;3.10;;
25409;SDS011;13339;50.840;4.346;2023-07-30T10:23:03;8.43;;;2.80;;
25409;SDS011;13339;50.840;4.346;2023-07-30T10:25:42;9.70;;;2.43;;
25409;SDS011;13339;50.840;4.346;2023-07-30T10:28:25;8.60;;;2.70;;
25409;SDS011;13339;50.840;4.346;2023-07-30T10:31:05;13.93;;;3.00;;
25409;SDS011;13339;50.840;4.346;2023-07-30T10:33:45;7.93;;;2.50;;
25409;SDS011;13339;50.840;4.346;2023-07-30T10:36:14;8.57;;;2.17;;
25409;SDS011;13339;50.840;4.346;2023-07-30T10:39:21;8.90;;;2.70;;
25409;SDS011;13339;50.840;4.346;2023-07-30T10:41:54;11.13;;;2.77;;
25409;SDS011;13339;50.840;4.346;2023-07-30T10:44:24;8.97;;;2.47;;
25409;SDS011;13339;50.840;4.346;2023-07-30T10:46:56;11.17;;;2.53;;
25409;SDS011;13339;50.840;4.346;2023-07-30T10:49:22;10.53;;;2.87;;
25409;SDS011;13339;50.840;4.346;2023-07-30T10:51:48;14.00;;;2.53;;
25409;SDS011;13339;50.840;4.346;2023-07-30T10:54:15;12.80;;;2.80;;
25409;SDS011;13339;50.840;4.346;2023-07-30T10:56:41;6.13;;;2.40;;
25409;SDS011;13339;50.840;4.346;2023-07-30T10:59:08;11.90;;;2.80;;
25409;SDS011;13339;50.840;4.346;2023-07-30T11:01:38;9.03;;;2.40;;
25409;SDS011;13339;50.840;4.346;2023-07-30T11:04:17;11.20;;;2.53;;
25409;SDS011;13339;50.840;4.346;2023-07-30T11:06:46;9.63;;;2.30;;
25409;SDS011;13339;50.840;4.346;2023-07-30T11:09:21;13.57;;;2.77;;
25409;SDS011;13339;50.840;4.346;2023-07-30T11:11:52;13.43;;;2.33;;
25409;SDS011;13339;50.840;4.346;2023-07-30T11:14:20;8.00;;;2.57;;
25409;SDS011;13339;50.840;4.346;2023-07-30T11:16:51;9.17;;;2.60;;
25409;SDS011;13339;50.840;4.346;2023-07-30T11:19:18;7.07;;;2.00;;
25409;SDS011;13339;50.840;4.346;2023-07-30T11:21:47;11.83;;;2.57;;
25409;SDS011;13339;50.840;4.346;2023-07-30T11:24:14;3.50;;;1.70;;
25409;SDS011;13339;50.840;4.346;2023-07-30T11:26:39;8.23;;;2.30;;
25409;SDS011;13339;50.840;4.346;2023-07-30T11:29:18;11.73;;;1.93;;
25409;SDS011;13339;50.840;4.346;2023-07-30T11:31:45;5.50;;;1.70;;
25409;SDS011;13339;50.840;4.346;2023-07-30T11:34:15;10.60;;;1.83;;
25409;SDS011;13339;50.840;4.346;2023-07-30T11:36:43;7.60;;;1.83;;
25409;SDS011;13339;50.840;4.346;2023-07-30T11:39:09;6.23;;;1.77;;
25409;SDS011;13339;50.840;4.346;2023-07-30T11:41:35;5.03;;;1.70;;
25409;SDS011;13339;50.840;4.346;2023-07-30T11:44:01;4.78;;;1.52;;
25409;SDS011;13339;50.840;4.346;2023-07-30T11:46:28;6.63;;;1.87;;
25409;SDS011;13339;50.840;4.346;2023-07-30T11:49:10;6.38;;;1.77;;
25409;SDS011;13339;50.840;4.346;2023-07-30T11:51:37;3.95;;;1.52;;
25409;SDS011;13339;50.840;4.346;2023-07-30T11:54:03;4.63;;;1.27;;
25409;SDS011;13339;50.840;4.346;2023-07-30T11:56:29;6.63;;;1.47;;
25409;SDS011;13339;50.840;4.346;2023-07-30T11:59:01;5.28;;;2.03;;
25409;SDS011;13339;50.840;4.346;2023-07-30T12:01:31;5.97;;;1.70;;
25409;SDS011;13339;50.840;4.346;2023-07-30T12:04:00;7.32;;;1.88;;
25409;SDS011;13339;50.840;4.346;2023-07-30T12:09:16;8.80;;;1.90;;
25409;SDS011;13339;50.840;4.346;2023-07-30T12:11:49;6.73;;;1.77;;
25409;SDS011;13339;50.840;4.346;2023-07-30T12:14:25;6.93;;;2.00;;
25409;SDS011;13339;50.840;4.346;2023-07-30T12:17:07;7.23;;;1.93;;
25409;SDS011;13339;50.840;4.346;2023-07-30T12:19:32;6.90;;;1.93;;
25409;SDS011;13339;50.840;4.346;2023-07-30T12:21:58;7.67;;;1.73;;
25409;SDS011;13339;50.840;4.346;2023-07-30T12:24:23;7.87;;;2.37;;
25409;SDS011;13339;50.840;4.346;2023-07-30T12:26:49;8.47;;;2.10;;
25409;SDS011;13339;50.840;4.346;2023-07-30T12:29:14;10.77;;;2.03;;
25409;SDS011;13339;50.840;4.346;2023-07-30T12:31:40;9.83;;;2.27;;
25409;SDS011;13339;50.840;4.346;2023-07-30T12:34:06;7.77;;;2.57;;
25409;SDS011;13339;50.840;4.346;2023-07-30T12:36:31;9.63;;;2.53;;
25409;SDS011;13339;50.840;4.346;2023-07-30T12:38:57;7.83;;;2.17;;
25409;SDS011;13339;50.840;4.346;2023-07-30T12:41:22;6.03;;;2.20;;
25409;SDS011;13339;50.840;4.346;2023-07-30T12:43:54;11.83;;;2.17;;
25409;SDS011;13339;50.840;4.346;2023-07-30T12:46:22;7.53;;;2.13;;
25409;SDS011;13339;50.840;4.346;2023-07-30T12:48:47;7.97;;;2.27;;
25409;SDS011;13339;50.840;4.346;2023-07-30T12:51:13;9.25;;;2.03;;
25409;SDS011;13339;50.840;4.346;2023-07-30T12:53:39;8.43;;;2.20;;
25409;SDS011;13339;50.840;4.346;2023-07-30T12:56:05;8.03;;;2.10;;
25409;SDS011;13339;50.840;4.346;2023-07-30T12:58:30;8.97;;;2.10;;
25409;SDS011;13339;50.840;4.346;2023-07-30T13:00:56;5.80;;;1.90;;
25409;SDS011;13339;50.840;4.346;2023-07-30T13:03:22;5.77;;;2.07;;
25409;SDS011;13339;50.840;4.346;2023-07-30T13:05:47;6.27;;;1.80;;
25409;SDS011;13339;50.840;4.346;2023-07-30T13:08:13;8.45;;;1.95;;
25409;SDS011;13339;50.840;4.346;2023-07-30T13:10:38;5.47;;;1.70;;
25409;SDS011;13339;50.840;4.346;2023-07-30T13:13:04;4.57;;;2.00;;
25409;SDS011;13339;50.840;4.346;2023-07-30T13:15:29;11.13;;;2.38;;
25409;SDS011;13339;50.840;4.346;2023-07-30T13:17:55;5.47;;;1.77;;
25409;SDS011;13339;50.840;4.346;2023-07-30T13:20:22;4.18;;;1.80;;
25409;SDS011;13339;50.840;4.346;2023-07-30T13:22:47;5.40;;;2.30;;
25409;SDS011;13339;50.840;4.346;2023-07-30T13:25:15;6.77;;;1.87;;
25409;SDS011;13339;50.840;4.346;2023-07-30T13:27:40;7.28;;;2.40;;
25409;SDS011;13339;50.840;4.346;2023-07-30T13:30:06;7.50;;;2.43;;
25409;SDS011;13339;50.840;4.346;2023-07-30T13:32:32;6.55;;;2.35;;
25409;SDS011;13339;50.840;4.346;2023-07-30T13:34:58;7.13;;;2.33;;
25409;SDS011;13339;50.840;4.346;2023-07-30T13:37:23;6.63;;;2.53;;
25409;SDS011;13339;50.840;4.346;2023-07-30T13:39:49;5.72;;;2.20;;
25409;SDS011;13339;50.840;4.346;2023-07-30T13:42:14;7.00;;;2.42;;
25409;SDS011;13339;50.840;4.346;2023-07-30T13:44:40;7.05;;;2.22;;
25409;SDS011;13339;50.840;4.346;2023-07-30T13:47:07;7.72;;;2.20;;
25409;SDS011;13339;50.840;4.346;2023-07-30T13:49:32;11.15;;;2.17;;
25409;SDS011;13339;50.840;4.346;2023-07-30T13:51:58;5.18;;;1.80;;
25409;SDS011;13339;50.840;4.346;2023-07-30T13:54:23;6.80;;;2.40;;
25409;SDS011;13339;50.840;4.346;2023-07-30T13:56:49;6.00;;;2.35;;
25409;SDS011;13339;50.840;4.346;2023-07-30T13:59:14;7.23;;;2.70;;
25409;SDS011;13339;50.840;4.346;2023-07-30T14:01:40;9.77;;;2.20;;
25409;SDS011;13339;50.840;4.346;2023-07-30T14:04:06;5.90;;;2.17;;
25409;SDS011;13339;50.840;4.346;2023-07-30T14:06:31;6.17;;;2.50;;
25409;SDS011;13339;50.840;4.346;2023-07-30T14:08:57;8.05;;;2.63;;
25409;SDS011;13339;50.840;4.346;2023-07-30T14:11:24;11.87;;;2.83;;
25409;SDS011;13339;50.840;4.346;2023-07-30T14:13:51;6.30;;;2.60;;
25409;SDS011;13339;50.840;4.346;2023-07-30T14:16:17;7.40;;;2.80;;
25409;SDS011;13339;50.840;4.346;2023-07-30T14:18:42;9.20;;;2.50;;
25409;SDS011;13339;50.840;4.346;2023-07-30T14:21:08;9.02;;;2.80;;
25409;SDS011;13339;50.840;4.346;2023-07-30T14:23:33;6.78;;;2.40;;
25409;SDS011;13339;50.840;4.346;2023-07-30T14:25:59;10.77;;;2.70;;
25409;SDS011;13339;50.840;4.346;2023-07-30T14:28:26;7.07;;;2.50;;
25409;SDS011;13339;50.840;4.346;2023-07-30T14:30:51;8.77;;;3.10;;
25409;SDS011;13339;50.840;4.346;2023-07-30T14:33:17;7.13;;;3.07;;
25409;SDS011;13339;50.840;4.346;2023-07-30T14:35:42;10.23;;;2.80;;
25409;SDS011;13339;50.840;4.346;2023-07-30T14:38:08;8.95;;;2.78;;